Time;durP1;ratioP1;P1;durP2;ratioP2;P2;SDS_P1;SDS_P2;PMS_P1;PMS_P2;Temp;Humidity;BMP_temperature;BMP_pressure;BME280_temperature;BME280_humidity;BME280_pressure;Samples;Min_cycle;Max_cycle;Signal;HPM_P1;HPM_P2
2022/02/19 00:02:58;;;;;;;;;;;22.90;32.70;;;;;;5090362;28;19924;-70
2022/02/19 00:05:25;;;;;;;;;;;22.90;32.70;;;;;;5092644;28;19978;-70
2022/02/19 00:07:52;;;;;;;;;;;22.90;32.70;;;;;;5089428;28;19967;-70
2022/02/19 00:10:19;;;;;;;;;;;22.90;32.70;;;;;;5074785;28;20377;-70
2022/02/19 00:12:46;;;;;;;;;;;22.90;32.70;;;;;;5089247;28;19963;-70
2022/02/19 00:15:15;;;;;;;;;;;22.90;32.70;;;;;;5091885;28;21351;-70
2022/02/19 00:17:42;;;;;;;;;;;22.90;32.60;;;;;;5089675;28;19975;-70
2022/02/19 00:20:12;;;;;;;;;;;22.90;32.60;;;;;;5092415;28;19959;-69
2022/02/19 00:22:39;;;;;;;;;;;22.90;32.70;;;;;;5089595;28;19965;-70
2022/02/19 00:25:07;;;;;;;;;;;22.90;32.60;;;;;;5092290;28;19924;-70
2022/02/19 00:27:34;;;;;;;;;;;22.90;32.70;;;;;;5089875;28;19990;-70
2022/02/19 00:30:01;;;;;;;;;;;22.90;32.60;;;;;;5092270;28;20079;-71
2022/02/19 00:32:28;;;;;;;;;;;22.90;32.70;;;;;;5089543;28;19970;-70
2022/02/19 00:35:24;;;;;;;;;;;22.90;32.70;;;;;;5091883;28;19978;-70
2022/02/19 00:37:51;;;;;;;;;;;22.90;32.70;;;;;;5088085;28;19969;-70
2022/02/19 00:40:18;;;;;;;;;;;22.90;32.70;;;;;;5073872;28;19975;-70
2022/02/19 00:42:45;;;;;;;;;;;22.90;32.70;;;;;;5088115;28;19924;-70
2022/02/19 00:45:12;;;;;;;;;;;22.90;32.70;;;;;;5092159;28;19977;-70
2022/02/19 00:47:39;;;;;;;;;;;22.90;32.70;;;;;;5088762;28;19924;-70
2022/02/19 00:50:08;;;;;;;;;;;22.90;32.70;;;;;;5091396;28;19977;-70
2022/02/19 00:52:35;;;;;;;;;;;22.90;32.70;;;;;;5089529;28;19971;-70
2022/02/19 00:55:02;;;;;;;;;;;22.90;32.80;;;;;;5091546;28;20335;-70
2022/02/19 00:57:29;;;;;;;;;;;22.90;32.70;;;;;;5089723;28;20373;-70
2022/02/19 01:03:01;;;;;;;;;;;22.80;32.70;;;;;;5089140;28;20415;-70
2022/02/19 01:05:28;;;;;;;;;;;22.80;32.70;;;;;;5091886;28;19977;-70
2022/02/19 01:07:55;;;;;;;;;;;22.80;32.80;;;;;;5088798;28;19966;-70
2022/02/19 01:10:22;;;;;;;;;;;22.80;32.80;;;;;;5091306;28;19928;-70
2022/02/19 01:12:49;;;;;;;;;;;22.80;32.70;;;;;;5088668;28;20159;-70
2022/02/19 01:15:16;;;;;;;;;;;22.80;32.70;;;;;;5090828;28;20270;-70
2022/02/19 01:17:43;;;;;;;;;;;22.80;32.70;;;;;;5087944;28;19974;-70
2022/02/19 01:20:11;;;;;;;;;;;22.80;32.80;;;;;;5088666;28;19932;-70
2022/02/19 01:22:42;;;;;;;;;;;22.80;32.80;;;;;;5089162;28;20018;-70
2022/02/19 01:25:27;;;;;;;;;;;22.80;32.80;;;;;;5090658;28;19977;-70
2022/02/19 01:27:54;;;;;;;;;;;22.80;32.70;;;;;;5088298;28;19935;-70
2022/02/19 01:30:21;;;;;;;;;;;22.80;32.70;;;;;;5091145;28;20001;-70
2022/02/19 01:32:48;;;;;;;;;;;22.80;32.70;;;;;;5070432;28;19970;-70
2022/02/19 01:35:15;;;;;;;;;;;22.80;32.80;;;;;;5090793;28;19932;-70
2022/02/19 01:37:42;;;;;;;;;;;22.90;32.80;;;;;;5088244;28;20342;-70
2022/02/19 01:40:09;;;;;;;;;;;22.90;32.80;;;;;;5072674;28;19927;-70
2022/02/19 01:42:36;;;;;;;;;;;22.90;32.80;;;;;;5088065;28;19979;-70
2022/02/19 01:45:03;;;;;;;;;;;22.90;32.90;;;;;;5090966;28;19928;-70
2022/02/19 01:47:30;;;;;;;;;;;22.90;32.90;;;;;;5088523;28;19985;-70
2022/02/19 01:53:01;;;;;;;;;;;22.90;32.80;;;;;;5087688;28;19973;-70
2022/02/19 01:55:28;;;;;;;;;;;22.90;32.80;;;;;;5090599;28;19924;-70
2022/02/19 01:57:56;;;;;;;;;;;22.90;32.80;;;;;;5091028;28;20392;-70
2022/02/19 02:00:23;;;;;;;;;;;22.90;32.80;;;;;;5090461;28;20296;-70
2022/02/19 02:02:52;;;;;;;;;;;22.90;32.80;;;;;;5087853;28;20125;-69
2022/02/19 02:05:19;;;;;;;;;;;22.90;32.80;;;;;;5090254;28;19924;-69
2022/02/19 02:07:46;;;;;;;;;;;22.90;32.80;;;;;;5087519;28;20019;-69
2022/02/19 02:10:14;;;;;;;;;;;22.90;32.80;;;;;;5090186;28;20397;-70
2022/02/19 02:12:41;;;;;;;;;;;22.90;32.80;;;;;;5087677;28;20374;-70
2022/02/19 02:15:31;;;;;;;;;;;22.90;32.80;;;;;;5090672;28;19924;-70
2022/02/19 02:17:59;;;;;;;;;;;22.90;32.80;;;;;;5069579;28;19973;-70
2022/02/19 02:20:26;;;;;;;;;;;22.90;32.90;;;;;;5090412;28;20270;-69
2022/02/19 02:22:53;;;;;;;;;;;22.90;32.80;;;;;;5087580;28;19936;-69
2022/02/19 02:25:25;;;;;;;;;;;22.90;32.90;;;;;;5090338;28;19924;-70
2022/02/19 02:27:52;;;;;;;;;;;22.90;32.90;;;;;;5086797;28;19967;-69
2022/02/19 02:30:19;;;;;;;;;;;22.90;32.90;;;;;;5090104;28;19924;-70
2022/02/19 02:32:46;;;;;;;;;;;22.90;32.90;;;;;;5087210;28;20393;-69
2022/02/19 02:35:15;;;;;;;;;;;22.90;32.90;;;;;;5090124;28;19928;-70
2022/02/19 02:37:42;;;;;;;;;;;22.90;32.90;;;;;;5087791;28;19928;-69
2022/02/19 02:40:09;;;;;;;;;;;22.80;32.80;;;;;;5089930;28;20081;-70
2022/02/19 02:42:36;;;;;;;;;;;22.80;32.80;;;;;;5087107;28;20635;-70
2022/02/19 02:45:04;;;;;;;;;;;22.80;32.80;;;;;;5089697;28;20015;-72
2022/02/19 02:47:50;;;;;;;;;;;22.80;32.80;;;;;;5087199;28;20014;-69
2022/02/19 02:50:17;;;;;;;;;;;22.80;32.80;;;;;;5089677;28;19924;-70
2022/02/19 02:52:44;;;;;;;;;;;22.80;32.80;;;;;;5087592;28;19971;-69
2022/02/19 02:55:12;;;;;;;;;;;22.80;32.90;;;;;;5089851;28;19982;-70
2022/02/19 02:57:40;;;;;;;;;;;22.80;32.90;;;;;;5087835;28;19975;-70
2022/02/19 03:00:25;;;;;;;;;;;22.80;32.90;;;;;;5089546;28;19970;-71
2022/02/19 03:02:52;;;;;;;;;;;22.80;32.90;;;;;;5069418;28;19928;-70
2022/02/19 03:05:20;;;;;;;;;;;22.80;32.90;;;;;;5089790;28;20047;-69
2022/02/19 03:07:47;;;;;;;;;;;22.80;32.90;;;;;;5086801;28;19971;-69
2022/02/19 03:10:16;;;;;;;;;;;22.80;32.90;;;;;;5089769;28;20370;-70
2022/02/19 03:12:44;;;;;;;;;;;22.80;32.90;;;;;;5086800;28;20327;-69
2022/02/19 03:15:11;;;;;;;;;;;22.80;32.90;;;;;;5089647;28;20002;-70
2022/02/19 03:17:38;;;;;;;;;;;22.80;32.90;;;;;;5072022;28;19924;-70
2022/02/19 03:20:06;;;;;;;;;;;22.80;32.90;;;;;;5089070;28;19928;-70
2022/02/19 03:22:34;;;;;;;;;;;22.80;32.90;;;;;;5087349;28;19967;-70
2022/02/19 03:25:33;;;;;;;;;;;22.80;32.90;;;;;;5089341;28;20360;-70
2022/02/19 03:28:00;;;;;;;;;;;22.80;32.90;;;;;;5087330;28;20335;-70
2022/02/19 03:30:27;;;;;;;;;;;22.80;32.90;;;;;;5089334;28;19924;-70
2022/02/19 03:32:54;;;;;;;;;;;22.80;32.90;;;;;;5086230;28;19964;-70
2022/02/19 03:35:21;;;;;;;;;;;22.80;32.90;;;;;;5089721;28;19993;-70
2022/02/19 03:37:48;;;;;;;;;;;22.80;32.90;;;;;;5068726;28;19969;-69
2022/02/19 03:40:15;;;;;;;;;;;22.80;32.90;;;;;;5093214;28;19997;-69
2022/02/19 03:42:42;;;;;;;;;;;22.80;32.90;;;;;;5090418;28;19955;-70
2022/02/19 03:45:11;;;;;;;;;;;22.80;33.00;;;;;;5092928;28;19969;-70
2022/02/19 03:47:41;;;;;;;;;;;22.80;33.00;;;;;;5090761;28;19925;-70
2022/02/19 03:50:26;;;;;;;;;;;22.80;33.00;;;;;;5093301;28;19924;-70
2022/02/19 03:52:53;;;;;;;;;;;22.80;33.00;;;;;;5090427;28;19923;-70
2022/02/19 03:55:20;;;;;;;;;;;22.80;33.00;;;;;;5092925;28;19924;-71
2022/02/19 03:57:47;;;;;;;;;;;22.80;33.00;;;;;;5090314;28;19924;-70
2022/02/19 04:00:14;;;;;;;;;;;22.80;33.00;;;;;;5093019;28;19988;-70
2022/02/19 04:02:43;;;;;;;;;;;22.80;33.00;;;;;;5089838;28;19967;-70
2022/02/19 04:05:11;;;;;;;;;;;22.80;33.00;;;;;;5092798;28;19924;-70
2022/02/19 04:07:38;;;;;;;;;;;22.80;33.00;;;;;;5090294;28;19924;-70
2022/02/19 04:10:07;;;;;;;;;;;22.80;33.10;;;;;;5092197;28;20381;-70
2022/02/19 04:12:34;;;;;;;;;;;22.80;33.00;;;;;;5072325;28;19928;-69
2022/02/19 04:17:52;;;;;;;;;;;22.80;33.10;;;;;;5089602;28;20377;-70
2022/02/19 04:20:19;;;;;;;;;;;22.80;33.10;;;;;;5092523;28;20361;-72
2022/02/19 04:22:46;;;;;;;;;;;22.80;33.10;;;;;;5071679;28;19977;-70
2022/02/19 04:25:13;;;;;;;;;;;22.70;33.00;;;;;;5092357;28;19964;-70
2022/02/19 04:27:40;;;;;;;;;;;22.80;33.10;;;;;;5089718;28;20341;-70
2022/02/19 04:30:08;;;;;;;;;;;22.80;33.10;;;;;;5092254;28;19978;-71
2022/02/19 04:32:35;;;;;;;;;;;22.80;33.10;;;;;;5089534;28;20005;-70
2022/02/19 04:35:02;;;;;;;;;;;22.80;33.10;;;;;;5092131;28;19969;-70
2022/02/19 04:37:29;;;;;;;;;;;22.80;33.10;;;;;;5089952;28;19924;-70
2022/02/19 04:43:00;;;;;;;;;;;22.80;33.10;;;;;;5089368;28;20339;-71
2022/02/19 04:45:28;;;;;;;;;;;22.80;33.10;;;;;;5092745;28;19993;-70
2022/02/19 04:47:55;;;;;;;;;;;22.80;33.10;;;;;;5089057;28;19955;-70
2022/02/19 04:50:22;;;;;;;;;;;22.80;33.10;;;;;;5091240;28;19928;-70
2022/02/19 04:52:49;;;;;;;;;;;22.80;33.10;;;;;;5088213;28;19924;-71
2022/02/19 04:55:16;;;;;;;;;;;22.80;33.10;;;;;;5091890;28;19978;-70
2022/02/19 04:57:44;;;;;;;;;;;22.80;33.10;;;;;;5089171;28;19924;-70
2022/02/19 05:00:13;;;;;;;;;;;22.80;33.10;;;;;;5091608;28;19924;-71
2022/02/19 05:02:40;;;;;;;;;;;22.80;33.10;;;;;;5089089;28;19986;-70
2022/02/19 05:05:25;;;;;;;;;;;22.80;33.10;;;;;;5057252;28;19978;-71
2022/02/19 05:07:52;;;;;;;;;;;22.80;33.10;;;;;;5088349;28;19923;-70
2022/02/19 05:10:19;;;;;;;;;;;22.80;33.10;;;;;;5091873;28;19994;-71
2022/02/19 05:12:46;;;;;;;;;;;22.70;33.10;;;;;;5088277;28;20018;-70
2022/02/19 05:15:14;;;;;;;;;;;22.70;33.10;;;;;;5091495;28;19962;-71
2022/02/19 05:17:48;;;;;;;;;;;22.70;33.10;;;;;;5088356;28;20363;-69
2022/02/19 05:20:20;;;;;;;;;;;22.70;33.10;;;;;;5091146;28;19924;-70
2022/02/19 05:22:47;;;;;;;;;;;22.70;33.10;;;;;;5088344;28;19924;-70
2022/02/19 05:25:14;;;;;;;;;;;22.70;33.20;;;;;;5091075;28;19969;-70
2022/02/19 05:27:42;;;;;;;;;;;22.70;33.20;;;;;;5088491;28;19924;-70
2022/02/19 05:30:09;;;;;;;;;;;22.70;33.10;;;;;;5091011;28;20385;-70
2022/02/19 05:32:36;;;;;;;;;;;22.70;33.20;;;;;;5088131;28;19966;-70
2022/02/19 05:35:04;;;;;;;;;;;22.70;33.20;;;;;;5091100;28;19928;-70
2022/02/19 05:37:31;;;;;;;;;;;22.70;33.20;;;;;;5088532;28;19974;-70
2022/02/19 05:43:02;;;;;;;;;;;22.70;33.20;;;;;;5087848;28;19924;-70
2022/02/19 05:45:29;;;;;;;;;;;22.70;33.20;;;;;;5090845;28;20057;-71
2022/02/19 05:47:58;;;;;;;;;;;22.70;33.20;;;;;;5088119;28;19978;-70
2022/02/19 05:50:26;;;;;;;;;;;22.70;33.20;;;;;;5090738;28;19931;-71
2022/02/19 05:52:53;;;;;;;;;;;22.70;33.20;;;;;;5087759;28;19928;-71
2022/02/19 05:55:20;;;;;;;;;;;22.70;33.20;;;;;;5090785;28;20357;-71
2022/02/19 05:57:47;;;;;;;;;;;22.70;33.20;;;;;;5088192;28;20151;-70
2022/02/19 06:00:15;;;;;;;;;;;22.70;33.20;;;;;;5090499;28;19924;-71
2022/02/19 06:02:42;;;;;;;;;;;22.70;33.20;;;;;;5087672;28;19924;-71
2022/02/19 06:05:25;;;;;;;;;;;22.70;33.20;;;;;;5090613;28;19924;-71
2022/02/19 06:07:52;;;;;;;;;;;22.70;33.20;;;;;;5087490;28;19928;-71
2022/02/19 06:10:19;;;;;;;;;;;22.80;33.20;;;;;;5090428;28;20410;-70
2022/02/19 06:12:46;;;;;;;;;;;22.80;33.10;;;;;;5088005;28;20339;-70
2022/02/19 06:15:13;;;;;;;;;;;22.80;33.10;;;;;;5090404;28;20464;-70
2022/02/19 06:17:40;;;;;;;;;;;22.80;33.10;;;;;;5088204;28;19924;-69
2022/02/19 06:20:07;;;;;;;;;;;22.80;33.00;;;;;;5089797;28;19932;-70
2022/02/19 06:22:34;;;;;;;;;;;22.80;33.00;;;;;;5088118;28;20377;-70
2022/02/19 06:25:01;;;;;;;;;;;22.80;32.90;;;;;;5089621;28;19927;-70
2022/02/19 06:27:28;;;;;;;;;;;22.90;32.90;;;;;;5087879;28;20367;-70
2022/02/19 06:30:26;;;;;;;;;;;22.90;32.90;;;;;;5089444;28;20470;-71
2022/02/19 06:32:54;;;;;;;;;;;22.90;32.80;;;;;;5086846;28;19997;-70
2022/02/19 06:35:21;;;;;;;;;;;23.00;32.80;;;;;;5072534;28;19924;-71
2022/02/19 06:37:48;;;;;;;;;;;23.00;32.80;;;;;;5087256;28;19971;-71
2022/02/19 06:40:16;;;;;;;;;;;23.00;32.70;;;;;;5090285;28;19928;-71
2022/02/19 06:42:43;;;;;;;;;;;23.10;32.70;;;;;;5087388;28;20039;-72
2022/02/19 06:45:10;;;;;;;;;;;23.20;32.70;;;;;;5089891;28;19931;-71
2022/02/19 06:47:38;;;;;;;;;;;23.20;32.60;;;;;;5087855;28;19931;-71
2022/02/19 06:50:06;;;;;;;;;;;23.20;32.60;;;;;;5089564;28;19977;-71
2022/02/19 06:52:33;;;;;;;;;;;23.30;32.60;;;;;;5087655;28;19960;-71
2022/02/19 06:57:52;;;;;;;;;;;23.40;32.50;;;;;;5086998;28;19977;-71
2022/02/19 07:00:19;;;;;;;;;;;23.40;32.40;;;;;;5090095;28;20108;-71
2022/02/19 07:02:46;;;;;;;;;;;23.50;32.40;;;;;;5086625;28;19963;-72
2022/02/19 07:05:14;;;;;;;;;;;23.50;32.30;;;;;;5089958;28;20474;-72
2022/02/19 07:07:41;;;;;;;;;;;23.60;32.20;;;;;;5069450;28;19982;-71
2022/02/19 07:10:09;;;;;;;;;;;23.60;32.20;;;;;;5089604;28;20027;-71
2022/02/19 07:12:37;;;;;;;;;;;23.60;32.10;;;;;;5087844;28;19950;-71
2022/02/19 07:15:07;;;;;;;;;;;23.60;32.00;;;;;;5092753;28;20010;-71
2022/02/19 07:17:47;;;;;;;;;;;23.60;32.00;;;;;;5091422;28;20127;-71
2022/02/19 07:20:15;;;;;;;;;;;23.60;32.00;;;;;;5093673;28;19997;-71
2022/02/19 07:22:42;;;;;;;;;;;23.60;32.20;;;;;;5091031;28;20331;-71
2022/02/19 07:25:10;;;;;;;;;;;23.60;32.00;;;;;;5093362;28;19982;-71
2022/02/19 07:27:38;;;;;;;;;;;23.60;32.10;;;;;;5072984;28;20343;-71
2022/02/19 07:30:06;;;;;;;;;;;23.50;32.10;;;;;;5093258;28;20037;-71
2022/02/19 07:32:34;;;;;;;;;;;23.50;32.10;;;;;;5091316;28;19958;-70
2022/02/19 07:35:02;;;;;;;;;;;23.50;32.10;;;;;;5093497;28;19989;-71
2022/02/19 07:37:29;;;;;;;;;;;23.50;32.10;;;;;;5091343;28;20296;-71
2022/02/19 07:43:03;;;;;;;;;;;23.50;32.20;;;;;;5090513;28;19924;-71
2022/02/19 07:45:30;;;;;;;;;;;23.50;32.20;;;;;;5093174;28;20304;-71
2022/02/19 07:47:57;;;;;;;;;;;23.50;32.10;;;;;;5090534;28;19951;-71
2022/02/19 07:58:45;;;;;;;;;;;23.50;32.10;;;;;;5090043;28;19967;-71
2022/02/19 08:01:12;;;;;;;;;;;23.50;32.20;;;;;;5092410;28;19924;-71
2022/02/19 08:03:39;;;;;;;;;;;23.50;32.20;;;;;;5090489;28;20388;-71
2022/02/19 08:06:06;;;;;;;;;;;23.50;32.20;;;;;;5091958;28;20117;-71
2022/02/19 08:08:34;;;;;;;;;;;23.50;32.20;;;;;;5089956;28;19992;-71
2022/02/19 08:11:01;;;;;;;;;;;23.50;32.20;;;;;;5092459;28;19924;-71
2022/02/19 08:16:50;;;;;;;;;;;23.50;32.10;;;;;;5091383;28;19957;-71
2022/02/19 08:19:17;;;;;;;;;;;23.40;32.00;;;;;;5091039;28;19974;-71
2022/02/19 08:21:44;;;;;;;;;;;23.50;31.90;;;;;;5091016;28;19924;-70
2022/02/19 08:24:11;;;;;;;;;;;23.50;31.90;;;;;;5091221;28;20373;-71
2022/02/19 08:26:38;;;;;;;;;;;23.50;31.80;;;;;;5089396;28;20397;-70
2022/02/19 08:32:26;;;;;;;;;;;23.50;31.70;;;;;;5090096;28;20023;-70
2022/02/19 08:34:55;;;;;;;;;;;23.50;31.60;;;;;;5091306;28;20023;-70
2022/02/19 08:37:22;;;;;;;;;;;23.50;31.60;;;;;;5090105;28;19993;-71
2022/02/19 08:39:49;;;;;;;;;;;23.50;31.60;;;;;;5091267;28;19967;-71
2022/02/19 08:42:16;;;;;;;;;;;23.50;31.60;;;;;;5090569;28;19995;-71
2022/02/19 08:47:54;;;;;;;;;;;23.50;31.50;;;;;;5089131;28;20393;-71
2022/02/19 08:50:21;;;;;;;;;;;23.50;31.50;;;;;;5091744;28;19924;-71
2022/02/19 08:52:48;;;;;;;;;;;23.50;31.50;;;;;;5089423;28;20324;-71
2022/02/19 08:55:16;;;;;;;;;;;23.50;31.50;;;;;;5091834;28;20096;-71
2022/02/19 08:57:44;;;;;;;;;;;23.50;31.40;;;;;;5088384;28;19968;-70
2022/02/19 09:00:12;;;;;;;;;;;23.60;31.40;;;;;;5092017;28;20386;-71
2022/02/19 09:02:40;;;;;;;;;;;23.60;31.30;;;;;;5088850;28;20298;-71
2022/02/19 09:05:07;;;;;;;;;;;23.60;31.30;;;;;;5073536;28;20385;-71
2022/02/19 09:07:35;;;;;;;;;;;23.60;31.30;;;;;;5089576;28;19981;-71
2022/02/19 09:10:03;;;;;;;;;;;23.60;31.20;;;;;;5090599;28;20365;-71
2022/02/19 09:12:30;;;;;;;;;;;23.70;31.10;;;;;;5089394;28;20003;-71
2022/02/19 09:14:57;;;;;;;;;;;23.70;31.00;;;;;;5091154;28;19927;-70
2022/02/19 09:17:24;;;;;;;;;;;23.70;30.90;;;;;;5089132;28;20456;-70
2022/02/19 09:22:56;;;;;;;;;;;23.80;30.80;;;;;;5088461;28;19924;-70
2022/02/19 09:25:23;;;;;;;;;;;23.80;30.70;;;;;;5091551;28;20285;-71
2022/02/19 09:27:50;;;;;;;;;;;23.80;30.60;;;;;;5088091;28;19924;-70
2022/02/19 09:30:17;;;;;;;;;;;23.80;30.60;;;;;;5091396;28;20001;-71
2022/02/19 09:32:44;;;;;;;;;;;23.80;30.70;;;;;;5088364;28;20369;-70
2022/02/19 09:35:12;;;;;;;;;;;23.80;30.50;;;;;;5073394;28;20292;-71
2022/02/19 09:37:39;;;;;;;;;;;23.80;30.40;;;;;;5069844;28;19924;-71
2022/02/19 09:40:07;;;;;;;;;;;23.90;30.40;;;;;;5091124;28;20086;-71
2022/02/19 09:42:35;;;;;;;;;;;23.90;30.30;;;;;;5088610;28;19924;-70
2022/02/19 09:47:54;;;;;;;;;;;23.90;30.30;;;;;;5087915;28;20442;-71
2022/02/19 09:50:24;;;;;;;;;;;23.90;30.20;;;;;;5091014;28;19969;-71
2022/02/19 09:52:51;;;;;;;;;;;23.90;30.10;;;;;;5087863;28;19935;-71
2022/02/19 09:55:18;;;;;;;;;;;23.90;30.00;;;;;;5091007;28;20333;-71
2022/02/19 09:57:45;;;;;;;;;;;23.90;30.00;;;;;;5069890;28;20209;-71
2022/02/19 10:00:12;;;;;;;;;;;23.90;30.00;;;;;;5090770;28;19969;-71
2022/02/19 10:02:40;;;;;;;;;;;23.90;30.00;;;;;;5087571;28;19928;-70
2022/02/19 10:05:10;;;;;;;;;;;23.80;29.90;;;;;;5090555;28;20331;-71
2022/02/19 10:07:37;;;;;;;;;;;23.90;29.90;;;;;;5087473;28;19932;-71
2022/02/19 10:10:05;;;;;;;;;;;23.90;29.90;;;;;;5089881;28;19974;-71
2022/02/19 10:12:46;;;;;;;;;;;23.80;29.90;;;;;;5088269;28;19990;-70
2022/02/19 10:15:13;;;;;;;;;;;23.80;29.90;;;;;;5090185;28;20415;-71
2022/02/19 10:17:40;;;;;;;;;;;23.80;29.90;;;;;;5087877;28;19935;-70
2022/02/19 10:20:08;;;;;;;;;;;23.80;29.90;;;;;;5090277;28;19928;-70
2022/02/19 10:22:36;;;;;;;;;;;23.80;29.90;;;;;;5087333;28;19924;-70
2022/02/19 10:25:05;;;;;;;;;;;23.80;29.90;;;;;;5089895;28;19924;-70
2022/02/19 10:28:07;;;;;;;;;;;23.80;29.90;;;;;;5087234;28;20313;-71
2022/02/19 10:30:35;;;;;;;;;;;23.70;29.80;;;;;;5090497;28;19924;-70
2022/02/19 10:33:04;;;;;;;;;;;23.70;29.90;;;;;;5086896;28;19931;-71
2022/02/19 10:35:38;;;;;;;;;;;23.70;29.80;;;;;;5090281;28;19997;-70
2022/02/19 10:38:10;;;;;;;;;;;23.70;29.70;;;;;;5089831;28;19928;-70
2022/02/19 10:40:39;;;;;;;;;;;23.70;29.60;;;;;;5090479;28;19931;-71
2022/02/19 10:43:08;;;;;;;;;;;23.70;29.60;;;;;;5087505;28;19928;-71
2022/02/19 10:45:36;;;;;;;;;;;23.70;29.50;;;;;;5089931;28;19924;-71
2022/02/19 10:48:17;;;;;;;;;;;23.70;29.50;;;;;;5086426;28;19931;-70
2022/02/19 10:50:45;;;;;;;;;;;23.70;29.50;;;;;;5089780;28;19999;-70
2022/02/19 10:53:20;;;;;;;;;;;23.70;29.60;;;;;;5087290;28;19951;-70
2022/02/19 10:55:47;;;;;;;;;;;23.70;29.60;;;;;;5089632;28;19924;-71
2022/02/19 10:58:14;;;;;;;;;;;23.70;29.50;;;;;;5086329;28;20282;-70
2022/02/19 11:00:41;;;;;;;;;;;23.60;29.50;;;;;;5090264;28;19924;-70
2022/02/19 11:03:09;;;;;;;;;;;23.60;29.50;;;;;;5086948;28;19974;-71
2022/02/19 11:05:38;;;;;;;;;;;23.60;29.50;;;;;;5089953;28;19924;-71
2022/02/19 11:08:05;;;;;;;;;;;23.60;29.50;;;;;;5086889;28;19924;-70
2022/02/19 11:10:33;;;;;;;;;;;23.60;29.50;;;;;;5089545;28;19928;-71
2022/02/19 11:13:01;;;;;;;;;;;23.60;29.50;;;;;;5087291;28;20312;-70
2022/02/19 11:15:28;;;;;;;;;;;23.60;29.50;;;;;;5089555;28;19986;-70
2022/02/19 11:17:56;;;;;;;;;;;23.60;29.50;;;;;;5086937;28;19924;-70
2022/02/19 11:20:24;;;;;;;;;;;23.60;29.40;;;;;;5089561;28;19924;-70
2022/02/19 11:22:52;;;;;;;;;;;23.60;29.40;;;;;;5086797;28;19924;-71
2022/02/19 11:25:20;;;;;;;;;;;23.60;29.40;;;;;;5089499;28;20108;-71
2022/02/19 11:28:03;;;;;;;;;;;23.60;29.40;;;;;;5086203;28;20605;-71
2022/02/19 11:30:31;;;;;;;;;;;23.60;29.40;;;;;;5089561;28;19931;-71
2022/02/19 11:33:00;;;;;;;;;;;23.60;29.40;;;;;;5087067;28;19969;-71
2022/02/19 11:35:31;;;;;;;;;;;23.60;29.50;;;;;;5089393;28;19928;-71
2022/02/19 11:37:59;;;;;;;;;;;23.50;29.50;;;;;;5087013;28;19932;-71
2022/02/19 11:40:26;;;;;;;;;;;23.50;29.50;;;;;;5089385;28;20266;-71
2022/02/19 11:42:53;;;;;;;;;;;23.50;29.60;;;;;;5087025;28;20325;-71
2022/02/19 11:45:23;;;;;;;;;;;23.50;29.60;;;;;;5089160;28;20022;-71
2022/02/19 11:47:51;;;;;;;;;;;23.50;29.60;;;;;;5086848;28;20011;-71
2022/02/19 11:50:20;;;;;;;;;;;23.50;29.60;;;;;;5090121;28;19928;-71
2022/02/19 11:53:07;;;;;;;;;;;23.50;29.70;;;;;;5086682;28;19967;-71
2022/02/19 11:55:34;;;;;;;;;;;23.60;29.70;;;;;;5088780;28;19924;-72
2022/02/19 11:58:09;;;;;;;;;;;23.50;29.60;;;;;;5086951;28;19924;-71
2022/02/19 12:00:46;;;;;;;;;;;23.60;29.70;;;;;;5091332;28;19924;-71
2022/02/19 12:03:14;;;;;;;;;;;23.60;29.60;;;;;;5090100;28;20195;-71
2022/02/19 12:06:01;;;;;;;;;;;23.60;29.60;;;;;;5093123;28;19924;-71
2022/02/19 12:08:38;;;;;;;;;;;23.60;29.60;;;;;;5090198;28;19924;-70
2022/02/19 12:11:06;;;;;;;;;;;23.60;29.60;;;;;;5092225;28;19924;-72
2022/02/19 12:17:07;;;;;;;;;;;23.50;29.60;;;;;;5091391;28;19974;-70
2022/02/19 12:19:54;;;;;;;;;;;23.50;29.70;;;;;;5091562;28;19924;-70
2022/02/19 12:22:35;;;;;;;;;;;23.50;29.70;;;;;;5090168;28;19924;-71
2022/02/19 12:25:10;;;;;;;;;;;23.50;29.70;;;;;;5073920;28;19932;-71
2022/02/19 12:27:37;;;;;;;;;;;23.50;29.70;;;;;;5089622;28;19951;-71
2022/02/19 12:30:18;;;;;;;;;;;23.50;29.70;;;;;;5091924;28;19928;-71
2022/02/19 12:32:47;;;;;;;;;;;23.50;29.80;;;;;;5089807;28;19924;-71
2022/02/19 12:35:14;;;;;;;;;;;23.50;29.80;;;;;;5091877;28;19924;-71
2022/02/19 12:37:41;;;;;;;;;;;23.50;29.80;;;;;;5072046;28;19924;-71
2022/02/19 12:40:14;;;;;;;;;;;23.50;29.80;;;;;;5091860;28;19977;-71
2022/02/19 12:42:44;;;;;;;;;;;23.40;29.80;;;;;;5089415;28;19947;-71
2022/02/19 12:45:11;;;;;;;;;;;23.50;29.90;;;;;;5091782;28;19924;-71
2022/02/19 12:47:39;;;;;;;;;;;23.40;29.90;;;;;;5090151;28;20289;-71
2022/02/19 12:50:07;;;;;;;;;;;23.40;30.00;;;;;;5092400;28;19924;-71
2022/02/19 12:52:34;;;;;;;;;;;23.40;30.00;;;;;;5089377;28;19931;-71
2022/02/19 12:55:01;;;;;;;;;;;23.30;30.00;;;;;;5091632;28;19934;-71
2022/02/19 12:57:30;;;;;;;;;;;23.30;30.00;;;;;;5089370;28;20468;-71
2022/02/19 13:03:07;;;;;;;;;;;23.30;30.10;;;;;;5089827;28;20014;-71
2022/02/19 13:05:36;;;;;;;;;;;23.30;30.20;;;;;;5092084;28;19932;-71
2022/02/19 13:08:07;;;;;;;;;;;23.30;30.20;;;;;;5088884;28;19958;-70
2022/02/19 13:10:36;;;;;;;;;;;23.30;30.30;;;;;;5092135;28;19924;-71
2022/02/19 13:13:14;;;;;;;;;;;23.30;30.30;;;;;;5088458;28;20028;-71
2022/02/19 13:15:41;;;;;;;;;;;23.30;30.40;;;;;;5092217;28;19978;-70
2022/02/19 13:18:07;;;;;;;;;;;23.30;30.40;;;;;;5091675;28;19928;-70
2022/02/19 13:20:35;;;;;;;;;;;23.30;30.40;;;;;;5091544;28;19931;-70
2022/02/19 13:23:02;;;;;;;;;;;23.30;30.40;;;;;;5088621;28;20435;-70
2022/02/19 13:25:39;;;;;;;;;;;23.30;30.40;;;;;;5091328;28;20420;-70
2022/02/19 13:28:07;;;;;;;;;;;23.30;30.40;;;;;;5088525;28;20301;-71
2022/02/19 13:30:34;;;;;;;;;;;23.30;30.40;;;;;;5091201;28;19924;-71
2022/02/19 13:33:01;;;;;;;;;;;23.30;30.40;;;;;;5088717;28;20336;-71
2022/02/19 13:35:30;;;;;;;;;;;23.30;30.40;;;;;;5091268;28;19924;-70
2022/02/19 13:37:58;;;;;;;;;;;23.30;30.40;;;;;;5088031;28;19924;-71
2022/02/19 13:40:28;;;;;;;;;;;23.30;30.40;;;;;;5090975;28;19924;-71
2022/02/19 13:42:57;;;;;;;;;;;23.30;30.40;;;;;;5088436;28;19924;-70
2022/02/19 13:45:28;;;;;;;;;;;23.30;30.40;;;;;;5090929;28;19935;-71
2022/02/19 13:47:57;;;;;;;;;;;23.30;30.50;;;;;;5088622;28;19924;-71
2022/02/19 13:50:26;;;;;;;;;;;23.30;30.50;;;;;;5091100;28;19924;-71
2022/02/19 13:53:10;;;;;;;;;;;23.30;30.60;;;;;;5087951;28;19932;-71
2022/02/19 13:55:38;;;;;;;;;;;23.30;30.60;;;;;;5090510;28;20381;-70
2022/02/19 13:58:10;;;;;;;;;;;23.30;30.70;;;;;;5088285;28;19924;-71
2022/02/19 14:00:38;;;;;;;;;;;23.30;30.70;;;;;;5090847;28;19935;-70
2022/02/19 14:03:05;;;;;;;;;;;23.30;31.30;;;;;;5087535;28;20436;-70
2022/02/19 14:05:38;;;;;;;;;;;23.30;30.80;;;;;;5090578;28;19993;-70
2022/02/19 14:08:05;;;;;;;;;;;23.30;30.80;;;;;;5087432;28;19924;-71
2022/02/19 14:10:32;;;;;;;;;;;23.30;30.80;;;;;;5090732;28;20004;-70
2022/02/19 14:13:07;;;;;;;;;;;23.30;30.90;;;;;;5087851;28;19932;-70
2022/02/19 14:15:36;;;;;;;;;;;23.30;31.00;;;;;;5072525;28;19924;-70
2022/02/19 14:18:05;;;;;;;;;;;23.30;31.00;;;;;;5087664;28;19971;-71
2022/02/19 14:20:33;;;;;;;;;;;23.30;31.00;;;;;;5090440;28;19932;-71
2022/02/19 14:23:09;;;;;;;;;;;23.30;31.00;;;;;;5087849;28;19928;-71
2022/02/19 14:25:39;;;;;;;;;;;23.30;31.10;;;;;;5090730;28;19963;-71
2022/02/19 14:28:06;;;;;;;;;;;23.30;31.10;;;;;;5087787;28;20016;-70
2022/02/19 14:30:33;;;;;;;;;;;23.20;31.70;;;;;;5090171;28;19977;-71
2022/02/19 14:33:02;;;;;;;;;;;23.20;31.10;;;;;;5087131;28;19964;-71
2022/02/19 14:35:29;;;;;;;;;;;23.20;31.10;;;;;;5072139;28;20447;-71
2022/02/19 14:37:56;;;;;;;;;;;23.30;31.20;;;;;;5087448;28;19977;-70
2022/02/19 14:40:23;;;;;;;;;;;23.30;31.20;;;;;;5090174;28;19924;-71
2022/02/19 14:42:50;;;;;;;;;;;23.30;31.20;;;;;;5086905;28;20432;-70
2022/02/19 14:45:17;;;;;;;;;;;23.30;31.20;;;;;;5089861;28;19977;-71
2022/02/19 14:47:44;;;;;;;;;;;23.30;31.20;;;;;;5087350;28;20396;-70
2022/02/19 14:50:12;;;;;;;;;;;23.20;31.10;;;;;;5089761;28;19946;-70
2022/02/19 14:52:39;;;;;;;;;;;23.30;31.20;;;;;;5087373;28;19927;-71
2022/02/19 14:57:54;;;;;;;;;;;23.30;31.30;;;;;;5086947;28;19924;-70
2022/02/19 15:00:21;;;;;;;;;;;23.20;31.20;;;;;;5089839;28;19966;-72
2022/02/19 15:02:48;;;;;;;;;;;23.20;31.30;;;;;;5086880;28;20376;-70
2022/02/19 15:05:15;;;;;;;;;;;23.20;31.30;;;;;;5090338;28;19931;-71
2022/02/19 15:07:43;;;;;;;;;;;23.20;31.40;;;;;;5087204;28;20392;-69
2022/02/19 15:10:12;;;;;;;;;;;23.20;31.40;;;;;;5089637;28;20039;-71
2022/02/19 15:12:39;;;;;;;;;;;23.20;31.40;;;;;;5086627;28;19928;-70
2022/02/19 15:15:07;;;;;;;;;;;23.20;31.40;;;;;;5071372;28;19936;-70
2022/02/19 15:17:34;;;;;;;;;;;23.20;31.50;;;;;;5087379;28;19924;-71
2022/02/19 15:22:57;;;;;;;;;;;23.10;31.50;;;;;;5086921;28;19974;-70
2022/02/19 15:25:24;;;;;;;;;;;23.20;32.10;;;;;;5089847;28;19966;-71